Time;durP1;ratioP1;P1;durP2;ratioP2;P2;SDS_P1;SDS_P2;PMS_P1;PMS_P2;Temp;Humidity;BMP_temperature;BMP_pressure;BME280_temperature;BME280_humidity;BME280_pressure;Samples;Min_cycle;Max_cycle;Signal;HPM_P1;HPM_P2
2022/09/12 00:01:12;;;;;;;0.10;0.10;;;16.00;99.90;;;;;;4963412;28;20081;-77
2022/09/12 00:03:41;;;;;;;0.32;0.32;;;16.00;99.90;;;;;;4962080;28;20110;-76
2022/09/12 00:06:25;;;;;;;0.22;0.22;;;16.00;99.90;;;;;;4971505;28;20051;-77
2022/09/12 00:08:57;;;;;;;0.95;0.95;;;16.10;99.90;;;;;;4962651;28;20034;-77
2022/09/12 00:11:23;;;;;;;0.15;0.15;;;16.10;99.90;;;;;;4962789;28;20038;-77
2022/09/12 00:13:51;;;;;;;0.10;0.10;;;16.10;99.90;;;;;;4959226;28;20039;-77
2022/09/12 00:16:20;;;;;;;0.10;0.10;;;16.10;99.90;;;;;;4963652;28;20050;-77
2022/09/12 00:18:46;;;;;;;0.20;0.20;;;16.10;99.90;;;;;;4960393;28;20523;-78
2022/09/12 00:21:15;;;;;;;0.20;0.20;;;16.10;99.90;;;;;;4962190;28;20023;-77
2022/09/12 00:23:41;;;;;;;0.10;0.10;;;16.00;99.90;;;;;;4965318;28;20475;-77
2022/09/12 00:26:09;;;;;;;0.17;0.17;;;16.00;99.90;;;;;;4961683;28;20031;-77
2022/09/12 00:28:37;;;;;;;2.53;1.15;;;16.00;99.90;;;;;;4966412;28;20030;-78
2022/09/12 00:31:06;;;;;;;0.13;0.13;;;16.00;99.90;;;;;;4962269;28;20091;-78
2022/09/12 00:33:32;;;;;;;0.10;0.10;;;16.00;99.90;;;;;;4978168;28;20342;-78
2022/09/12 00:36:03;;;;;;;0.10;0.10;;;15.90;99.90;;;;;;4962516;28;20042;-78
2022/09/12 00:38:31;;;;;;;11.40;2.05;;;16.00;99.90;;;;;;4963598;28;20058;-78
2022/09/12 00:40:57;;;;;;;2.72;1.40;;;15.90;99.90;;;;;;4961913;28;20753;-77
2022/09/12 00:43:29;;;;;;;0.10;0.10;;;15.90;99.90;;;;;;4961439;28;20114;-75
2022/09/12 00:45:57;;;;;;;0.20;0.20;;;15.80;99.90;;;;;;4963214;28;20029;-76
2022/09/12 00:48:59;;;;;;;0.10;0.10;;;15.80;99.90;;;;;;4962174;28;20023;-78
2022/09/12 00:51:25;;;;;;;0.57;0.57;;;15.80;99.90;;;;;;4954668;28;20042;-78
2022/09/12 00:53:54;;;;;;;0.40;0.40;;;15.70;99.90;;;;;;4962413;28;20058;-77
2022/09/12 00:56:21;;;;;;;0.65;0.65;;;15.70;99.90;;;;;;4965938;28;20555;-78
2022/09/12 00:58:54;;;;;;;0.10;0.10;;;15.70;99.90;;;;;;4961444;28;20062;-78
2022/09/12 01:01:22;;;;;;;0.10;0.10;;;15.70;99.90;;;;;;4961775;28;20031;-78
2022/09/12 01:03:48;;;;;;;0.10;0.10;;;15.60;99.90;;;;;;4966916;28;20070;-76
2022/09/12 01:06:20;;;;;;;0.13;0.13;;;15.60;99.90;;;;;;4963025;28;20059;-79
2022/09/12 01:08:47;;;;;;;0.10;0.10;;;15.60;99.90;;;;;;4968012;28;20027;-77
2022/09/12 01:11:14;;;;;;;0.10;0.10;;;15.60;99.90;;;;;;4963331;28;20037;-77
2022/09/12 01:13:42;;;;;;;0.10;0.10;;;15.60;99.90;;;;;;4966898;28;20035;-78
2022/09/12 01:16:08;;;;;;;0.13;0.13;;;15.60;99.90;;;;;;4963982;28;20062;-76
2022/09/12 01:19:11;;;;;;;0.10;0.10;;;15.60;99.90;;;;;;4963905;28;20404;-77
2022/09/12 01:22:14;;;;;;;0.10;0.10;;;15.60;99.90;;;;;;4961238;28;20031;-78
2022/09/12 01:25:22;;;;;;;0.45;0.45;;;15.50;99.90;;;;;;4965322;28;20027;-78
2022/09/12 01:28:17;;;;;;;0.10;0.10;;;15.50;99.90;;;;;;4962390;28;20039;-76
2022/09/12 01:31:03;;;;;;;0.93;0.90;;;15.50;99.90;;;;;;4961165;28;20062;-78
2022/09/12 01:33:53;;;;;;;0.10;0.10;;;15.40;99.90;;;;;;4959244;28;20101;-78
2022/09/12 01:36:24;;;;;;;0.10;0.10;;;15.40;99.90;;;;;;4960544;28;20031;-77
2022/09/12 01:39:01;;;;;;;0.10;0.10;;;15.40;99.90;;;;;;4963408;28;20105;-78
2022/09/12 01:41:29;;;;;;;0.73;0.73;;;15.30;99.90;;;;;;4963196;28;20070;-77
2022/09/12 01:44:16;;;;;;;0.10;0.10;;;15.30;99.90;;;;;;4966649;28;20523;-78
2022/09/12 01:47:10;;;;;;;0.10;0.10;;;15.20;99.90;;;;;;4962793;28;20031;-75
2022/09/12 01:49:39;;;;;;;;;;;15.10;99.90;;;;;;4944685;28;20039;-77
2022/09/12 01:52:11;;;;;;;0.10;0.10;;;15.10;99.90;;;;;;4960808;28;19934;-77
2022/09/12 01:55:07;;;;;;;0.10;0.10;;;15.20;99.90;;;;;;4959847;28;20038;-76
2022/09/12 01:57:49;;;;;;;0.63;0.63;;;15.10;99.90;;;;;;4961258;28;20486;-76
2022/09/12 02:00:15;;;;;;;0.10;0.10;;;15.10;99.90;;;;;;4963843;28;20557;-75
2022/09/12 02:03:04;;;;;;;0.30;0.30;;;15.10;99.90;;;;;;4960662;28;20035;-78
2022/09/12 02:05:47;;;;;;;0.20;0.20;;;15.10;99.90;;;;;;4961020;28;20225;-78
2022/09/12 02:08:18;;;;;;;;;;;15.00;99.90;;;;;;4965658;28;20038;-76
2022/09/12 02:10:55;;;;;;;0.10;0.10;;;15.00;99.90;;;;;;4967083;28;19915;-78
2022/09/12 02:13:34;;;;;;;0.10;0.10;;;15.00;99.90;;;;;;4962503;28;20042;-78
2022/09/12 02:16:24;;;;;;;0.10;0.10;;;14.90;99.90;;;;;;4960195;28;20031;-76
2022/09/12 02:18:56;;;;;;;0.22;0.22;;;14.90;99.90;;;;;;4969746;28;20126;-77
2022/09/12 02:21:27;;;;;;;0.30;0.30;;;14.80;99.90;;;;;;4965953;28;20019;-77
2022/09/12 02:23:57;;;;;;;0.22;0.22;;;14.90;99.90;;;;;;4970721;28;20015;-75
2022/09/12 02:26:31;;;;;;;0.10;0.10;;;14.90;99.90;;;;;;4966982;28;20175;-75
2022/09/12 02:28:57;;;;;;;0.47;0.47;;;14.90;99.90;;;;;;4966772;28;20035;-77
2022/09/12 02:31:46;;;;;;;0.10;0.10;;;14.90;99.90;;;;;;4966135;28;20467;-76
2022/09/12 02:34:40;;;;;;;0.10;0.10;;;14.90;99.90;;;;;;4958485;28;20031;-77
2022/09/12 02:37:18;;;;;;;0.20;0.20;;;14.90;99.90;;;;;;4963994;28;20151;-75
2022/09/12 02:39:44;;;;;;;0.20;0.20;;;14.90;99.90;;;;;;4959029;28;20690;-76
2022/09/12 02:42:10;;;;;;;0.25;0.25;;;14.90;99.90;;;;;;4968782;28;20026;-77
2022/09/12 02:44:38;;;;;;;1.15;1.15;;;14.80;99.90;;;;;;4962483;28;20393;-76
2022/09/12 02:47:42;;;;;;;0.10;0.10;;;14.80;99.90;;;;;;4973175;28;20078;-76
2022/09/12 02:50:08;;;;;;;0.30;0.30;;;14.80;99.90;;;;;;4964201;28;20046;-75
2022/09/12 02:52:35;;;;;;;0.10;0.10;;;14.80;99.90;;;;;;4967824;28;20041;-77
2022/09/12 02:55:04;;;;;;;0.10;0.10;;;14.80;99.90;;;;;;4964015;28;20062;-77
2022/09/12 02:57:30;;;;;;;0.10;0.10;;;14.80;99.90;;;;;;4962338;28;20027;-77
2022/09/12 03:00:00;;;;;;;0.30;0.30;;;14.80;99.90;;;;;;4966359;28;20089;-81
2022/09/12 03:02:43;;;;;;;0.10;0.10;;;14.80;99.90;;;;;;4967879;28;20023;-77
2022/09/12 03:05:36;;;;;;;0.55;0.55;;;14.80;99.90;;;;;;4965831;28;20023;-76
2022/09/12 03:08:20;;;;;;;0.10;0.10;;;14.80;99.90;;;;;;4965042;28;20135;-76
2022/09/12 03:11:07;;;;;;;0.10;0.10;;;14.70;99.90;;;;;;4963988;28;20125;-77
2022/09/12 03:14:14;;;;;;;0.20;0.20;;;14.80;99.90;;;;;;4965043;28;20043;-77
2022/09/12 03:16:52;;;;;;;1.00;0.73;;;14.80;99.90;;;;;;4959773;28;20047;-75
2022/09/12 03:19:56;;;;;;;0.10;0.10;;;14.90;99.90;;;;;;4961681;28;20441;-77
2022/09/12 03:22:40;;;;;;;0.30;0.30;;;14.90;99.90;;;;;;4940944;29;20035;-75
2022/09/12 03:25:28;;;;;;;0.52;0.45;;;14.90;99.90;;;;;;4961277;28;20039;-76
2022/09/12 03:28:19;;;;;;;1.02;0.40;;;14.80;99.90;;;;;;4978189;28;20052;-75
2022/09/12 03:30:54;;;;;;;0.20;0.20;;;14.80;99.90;;;;;;4962241;28;20046;-77
2022/09/12 03:33:24;;;;;;;0.10;0.10;;;14.70;99.90;;;;;;4980515;28;20041;-77
2022/09/12 03:35:51;;;;;;;0.10;0.10;;;14.70;99.90;;;;;;4963499;28;20031;-77
2022/09/12 03:38:17;;;;;;;0.03;0.03;;;14.70;99.90;;;;;;4962855;28;20074;-75
2022/09/12 03:40:45;;;;;;;0.10;0.10;;;14.70;99.90;;;;;;4968971;28;20038;-77
2022/09/12 03:43:11;;;;;;;0.85;0.85;;;14.60;99.90;;;;;;4961477;28;20034;-77
2022/09/12 03:45:39;;;;;;;0.35;0.35;;;14.50;99.90;;;;;;4960041;28;20031;-77
2022/09/12 03:48:05;;;;;;;0.10;0.10;;;14.50;99.90;;;;;;4964758;28;20022;-77
2022/09/12 03:50:33;;;;;;;0.10;0.10;;;14.40;99.90;;;;;;4962944;28;20031;-76
2022/09/12 03:52:59;;;;;;;1.65;0.65;;;14.40;99.90;;;;;;4967358;28;20085;-77
2022/09/12 03:55:25;;;;;;;0.10;0.10;;;14.40;99.90;;;;;;4964732;28;20426;-76
2022/09/12 03:57:54;;;;;;;0.10;0.10;;;14.30;99.90;;;;;;4963210;28;20068;-77
2022/09/12 04:00:20;;;;;;;0.20;0.20;;;14.40;99.90;;;;;;4964594;28;20026;-76
2022/09/12 04:02:46;;;;;;;0.17;0.17;;;14.30;99.90;;;;;;4968031;28;20125;-76
2022/09/12 04:05:12;;;;;;;1.55;0.68;;;14.30;99.90;;;;;;4961922;28;20066;-77
2022/09/12 04:07:37;;;;;;;0.10;0.10;;;14.30;99.90;;;;;;4963485;28;20042;-75
2022/09/12 04:10:04;;;;;;;8.77;0.85;;;14.30;99.90;;;;;;4970168;28;20042;-75
2022/09/12 04:12:32;;;;;;;0.65;0.22;;;14.30;99.90;;;;;;4963030;28;20047;-77
2022/09/12 04:14:57;;;;;;;0.20;0.20;;;14.30;99.90;;;;;;4960689;28;20138;-78
2022/09/12 04:17:23;;;;;;;0.10;0.10;;;14.30;99.90;;;;;;4964382;28;20549;-76
2022/09/12 04:19:48;;;;;;;0.10;0.10;;;14.30;99.90;;;;;;4962706;28;20050;-77
2022/09/12 04:22:16;;;;;;;0.70;0.70;;;14.30;99.90;;;;;;4963419;28;20027;-76
2022/09/12 04:24:42;;;;;;;1.17;1.10;;;14.30;99.90;;;;;;4975053;28;20027;-75
2022/09/12 04:27:07;;;;;;;0.63;0.63;;;14.30;99.90;;;;;;4962835;28;20520;-76
2022/09/12 04:29:34;;;;;;;0.15;0.15;;;14.20;99.90;;;;;;4965243;28;20031;-76
2022/09/12 04:32:00;;;;;;;0.10;0.10;;;14.20;99.90;;;;;;4962845;28;20026;-77
2022/09/12 04:34:29;;;;;;;0.30;0.30;;;14.20;99.90;;;;;;4962580;28;20106;-77
2022/09/12 04:36:54;;;;;;;1.23;0.73;;;14.20;99.90;;;;;;4963176;28;20023;-73
2022/09/12 04:39:20;;;;;;;0.70;0.70;;;14.20;99.90;;;;;;4962724;28;20034;-77
2022/09/12 04:41:45;;;;;;;0.25;0.25;;;14.20;99.90;;;;;;4963699;28;20412;-75
2022/09/12 04:44:16;;;;;;;2.10;1.60;;;14.10;99.90;;;;;;4963621;28;20027;-75
2022/09/12 04:46:44;;;;;;;0.28;0.28;;;14.20;99.90;;;;;;4961966;28;20106;-76
2022/09/12 04:49:15;;;;;;;0.10;0.10;;;14.20;99.90;;;;;;4962053;28;20093;-75
2022/09/12 04:51:41;;;;;;;0.20;0.20;;;14.20;99.90;;;;;;4978420;28;20042;-77
2022/09/12 04:54:13;;;;;;;1.17;0.47;;;14.20;99.90;;;;;;4965417;28;20046;-78
2022/09/12 04:56:43;;;;;;;0.10;0.10;;;14.20;99.90;;;;;;4961014;28;20479;-77
2022/09/12 04:59:14;;;;;;;0.10;0.10;;;14.20;99.90;;;;;;4960430;28;20028;-78
2022/09/12 05:01:45;;;;;;;0.22;0.22;;;14.30;99.90;;;;;;4965071;28;20400;-77
2022/09/12 05:04:12;;;;;;;0.25;0.25;;;14.20;99.90;;;;;;4961578;28;20031;-79
2022/09/12 05:06:41;;;;;;;0.20;0.20;;;14.30;99.90;;;;;;4967992;28;20076;-77
2022/09/12 05:09:11;;;;;;;0.10;0.10;;;14.30;99.90;;;;;;4966881;28;20054;-74
2022/09/12 05:11:42;;;;;;;8.77;1.15;;;14.30;99.90;;;;;;4963345;28;20031;-74
2022/09/12 05:14:08;;;;;;;0.20;0.20;;;14.30;99.90;;;;;;4963698;28;20027;-73
2022/09/12 05:16:36;;;;;;;1.10;1.10;;;14.40;99.90;;;;;;4962058;28;20027;-72
2022/09/12 05:19:05;;;;;;;2.05;1.95;;;14.40;99.90;;;;;;4960917;28;20459;-71
2022/09/12 05:21:31;;;;;;;0.82;0.82;;;14.40;99.90;;;;;;4963132;28;20035;-75
2022/09/12 05:23:58;;;;;;;0.65;0.65;;;14.50;99.90;;;;;;4972799;28;20166;-74
2022/09/12 05:26:24;;;;;;;0.00;0.00;;;14.50;99.90;;;;;;4961563;28;20015;-72
2022/09/12 05:28:51;;;;;;;0.17;0.17;;;14.60;99.90;;;;;;4964693;28;20459;-74
2022/09/12 05:31:18;;;;;;;0.10;0.10;;;14.60;99.90;;;;;;4962501;28;20030;-72
2022/09/12 05:33:46;;;;;;;0.35;0.35;;;14.60;99.90;;;;;;4966422;28;20034;-74
2022/09/12 05:36:20;;;;;;;0.10;0.10;;;14.70;99.90;;;;;;4968288;28;20023;-73
2022/09/12 05:38:47;;;;;;;0.10;0.10;;;14.70;99.90;;;;;;4960475;28;20407;-73
2022/09/12 05:41:17;;;;;;;0.15;0.15;;;14.80;99.90;;;;;;4961826;28;20090;-73
2022/09/12 05:43:44;;;;;;;0.25;0.25;;;14.80;99.90;;;;;;4965589;28;20023;-74
2022/09/12 05:46:17;;;;;;;0.13;0.13;;;14.90;99.90;;;;;;4959539;28;20050;-71
2022/09/12 05:48:44;;;;;;;;;;;15.00;99.90;;;;;;4961589;28;20042;-72
2022/09/12 05:51:12;;;;;;;0.30;0.30;;;15.00;99.90;;;;;;4961026;28;19917;-72
2022/09/12 05:53:40;;;;;;;0.13;0.13;;;15.10;99.90;;;;;;4959437;28;20038;-73
2022/09/12 05:56:12;;;;;;;0.10;0.10;;;15.20;99.90;;;;;;4960399;28;20047;-73
2022/09/12 05:58:40;;;;;;;0.77;0.77;;;15.30;99.90;;;;;;4944223;28;20094;-73
2022/09/12 06:01:09;;;;;;;0.17;0.17;;;15.40;99.90;;;;;;4962850;28;20111;-74
2022/09/12 06:03:39;;;;;;;0.17;0.17;;;15.40;99.90;;;;;;4962312;28;20469;-72
2022/09/12 06:06:06;;;;;;;0.57;0.57;;;15.50;99.90;;;;;;4963067;28;20084;-72
2022/09/12 06:08:33;;;;;;;0.10;0.10;;;15.60;99.90;;;;;;4960788;28;20023;-73
2022/09/12 06:11:01;;;;;;;0.40;0.40;;;15.60;99.90;;;;;;4956194;28;20110;-72
2022/09/12 06:13:27;;;;;;;0.90;0.90;;;15.60;99.90;;;;;;4959329;28;20118;-72
2022/09/12 06:15:53;;;;;;;0.60;0.60;;;15.70;99.90;;;;;;4958710;28;20110;-72
2022/09/12 06:18:21;;;;;;;0.52;0.52;;;15.70;99.90;;;;;;4966807;28;20026;-73
2022/09/12 06:20:49;;;;;;;0.30;0.30;;;15.80;99.90;;;;;;4959438;28;20028;-73
2022/09/12 06:23:15;;;;;;;0.22;0.22;;;15.80;99.90;;;;;;4960091;28;20031;-75
2022/09/12 06:25:47;;;;;;;0.10;0.10;;;15.90;99.90;;;;;;4966266;28;20022;-71
2022/09/12 06:28:12;;;;;;;0.20;0.20;;;16.00;99.90;;;;;;4969127;28;20033;-74
2022/09/12 06:30:38;;;;;;;0.10;0.10;;;16.00;99.90;;;;;;4962893;28;20130;-74
2022/09/12 06:33:04;;;;;;;0.68;0.68;;;16.10;99.90;;;;;;4971670;28;20039;-72
2022/09/12 06:35:29;;;;;;;1.80;0.88;;;16.20;99.90;;;;;;4967882;28;20031;-72
2022/09/12 06:37:57;;;;;;;0.40;0.40;;;16.30;99.90;;;;;;4973241;28;20457;-75
2022/09/12 06:40:23;;;;;;;0.32;0.32;;;16.40;99.90;;;;;;4972928;28;20034;-75
2022/09/12 06:42:51;;;;;;;0.20;0.20;;;16.50;99.90;;;;;;4967538;28;20045;-74
2022/09/12 06:45:21;;;;;;;0.28;0.28;;;16.60;99.90;;;;;;4968434;28;20042;-73
2022/09/12 06:47:47;;;;;;;0.82;0.75;;;16.70;99.90;;;;;;4970216;28;20034;-72
2022/09/12 06:50:15;;;;;;;0.35;0.35;;;16.80;99.90;;;;;;4964093;28;20070;-73
2022/09/12 06:52:41;;;;;;;0.30;0.30;;;16.90;99.90;;;;;;4968582;28;20019;-72
2022/09/12 06:55:07;;;;;;;0.25;0.25;;;17.00;99.90;;;;;;4968104;28;20023;-73
2022/09/12 06:57:37;;;;;;;0.57;0.57;;;16.90;99.90;;;;;;4968094;28;20118;-75
2022/09/12 07:00:09;;;;;;;0.30;0.30;;;17.00;99.90;;;;;;4964488;28;20115;-72
2022/09/12 07:02:34;;;;;;;0.30;0.30;;;17.00;99.90;;;;;;4970042;28;20297;-74
2022/09/12 07:05:00;;;;;;;0.17;0.17;;;17.10;99.90;;;;;;4967354;28;20031;-74
2022/09/12 07:07:26;;;;;;;0.20;0.20;;;17.20;99.90;;;;;;4965184;28;20018;-77
2022/09/12 07:09:51;;;;;;;0.30;0.30;;;17.20;99.90;;;;;;4970280;28;20035;-75
2022/09/12 07:12:17;;;;;;;1.00;1.00;;;17.30;99.90;;;;;;4968839;28;20027;-75
2022/09/12 07:14:43;;;;;;;0.45;0.40;;;17.40;99.90;;;;;;4971197;28;20037;-77
2022/09/12 07:17:08;;;;;;;0.88;0.88;;;17.40;99.90;;;;;;4967723;28;20140;-78
2022/09/12 07:19:34;;;;;;;0.20;0.20;;;17.40;99.90;;;;;;4970550;28;20019;-75
2022/09/12 07:22:00;;;;;;;3.90;1.02;;;17.40;99.90;;;;;;4966517;28;20037;-76
2022/09/12 07:24:26;;;;;;;1.65;0.80;;;17.40;99.90;;;;;;4972414;28;20019;-72
2022/09/12 07:26:54;;;;;;;0.85;0.85;;;17.40;99.90;;;;;;4975618;28;20106;-76
2022/09/12 07:29:19;;;;;;;0.20;0.20;;;17.40;99.90;;;;;;4968761;28;20027;-71
2022/09/12 07:31:45;;;;;;;0.20;0.20;;;17.40;99.90;;;;;;4967082;28;20038;-73
2022/09/12 07:34:11;;;;;;;0.70;0.70;;;17.50;99.90;;;;;;4963249;28;20027;-73
2022/09/12 07:36:39;;;;;;;0.68;0.68;;;17.60;99.90;;;;;;4964039;28;20479;-73
2022/09/12 07:39:06;;;;;;;0.38;0.38;;;17.60;99.90;;;;;;4967262;28;20018;-73
2022/09/12 07:41:34;;;;;;;0.35;0.35;;;17.70;99.90;;;;;;4962460;28;20460;-72
2022/09/12 07:44:07;;;;;;;0.20;0.20;;;17.70;99.90;;;;;;4972171;28;20061;-73
2022/09/12 07:46:34;;;;;;;0.28;0.28;;;17.70;99.90;;;;;;4964059;28;20147;-73
2022/09/12 07:49:00;;;;;;;0.30;0.30;;;17.70;99.90;;;;;;4972420;28;20081;-72
2022/09/12 07:51:30;;;;;;;0.30;0.30;;;17.70;99.90;;;;;;4965406;28;20034;-72
2022/09/12 07:53:56;;;;;;;1.35;0.93;;;17.70;99.90;;;;;;4966317;28;20035;-77
2022/09/12 07:56:23;;;;;;;0.65;0.65;;;17.70;99.90;;;;;;4965770;28;20427;-75
2022/09/12 07:58:49;;;;;;;0.65;0.65;;;17.70;99.90;;;;;;4966078;28;20352;-73
2022/09/12 08:01:19;;;;;;;0.30;0.30;;;17.70;99.90;;;;;;4958608;28;20118;-73
2022/09/12 08:03:47;;;;;;;0.63;0.63;;;17.70;99.90;;;;;;4965684;28;20019;-72
2022/09/12 08:06:19;;;;;;;0.30;0.30;;;17.80;99.90;;;;;;4962474;28;20046;-72
2022/09/12 08:08:47;;;;;;;0.30;0.30;;;18.00;99.90;;;;;;4968197;28;20034;-72
2022/09/12 08:11:17;;;;;;;0.70;0.68;;;18.10;99.90;;;;;;4965263;28;20042;-72
2022/09/12 08:13:46;;;;;;;0.50;0.50;;;18.40;99.90;;;;;;4975146;28;20090;-73
2022/09/12 08:16:17;;;;;;;0.93;0.93;;;18.40;99.90;;;;;;4962151;28;20093;-73
2022/09/12 08:18:43;;;;;;;0.75;0.75;;;18.50;99.90;;;;;;4965060;28;20169;-73
2022/09/12 08:21:20;;;;;;;0.50;0.50;;;18.80;99.90;;;;;;4963822;28;20019;-73
2022/09/12 08:23:49;;;;;;;1.83;1.75;;;19.10;99.90;;;;;;4963677;28;20318;-72
2022/09/12 08:26:18;;;;;;;0.30;0.30;;;19.30;99.90;;;;;;4961152;28;20461;-74
2022/09/12 08:28:45;;;;;;;0.47;0.47;;;19.50;99.90;;;;;;4963720;28;20159;-73
2022/09/12 08:31:16;;;;;;;0.50;0.50;;;19.70;99.90;;;;;;4971491;28;20451;-73
2022/09/12 08:33:42;;;;;;;0.28;0.28;;;19.80;99.90;;;;;;4966968;28;20110;-73
2022/09/12 08:36:11;;;;;;;0.40;0.40;;;20.10;99.90;;;;;;4962536;28;20111;-73
2022/09/12 08:38:39;;;;;;;0.90;0.90;;;20.40;99.90;;;;;;4961709;28;20037;-74
2022/09/12 08:41:30;;;;;;;2.17;1.67;;;20.70;99.90;;;;;;4963070;28;20388;-76
2022/09/12 08:44:26;;;;;;;0.60;0.60;;;21.00;99.90;;;;;;4959948;28;20027;-74
2022/09/12 08:46:56;;;;;;;0.40;0.40;;;21.00;99.90;;;;;;4961659;28;20102;-73
2022/09/12 08:49:35;;;;;;;0.40;0.40;;;21.20;99.90;;;;;;4962650;28;20015;-73
2022/09/12 08:52:45;;;;;;;0.60;0.60;;;21.40;99.90;;;;;;4962787;28;20100;-72
2022/09/12 08:55:33;;;;;;;0.40;0.40;;;21.30;99.90;;;;;;4962005;28;20513;-73
2022/09/12 08:58:04;;;;;;;0.40;0.40;;;21.00;99.90;;;;;;4962963;28;20027;-73
2022/09/12 09:00:42;;;;;;;0.60;0.60;;;21.10;99.90;;;;;;4962486;28;20054;-74
2022/09/12 09:03:18;;;;;;;0.50;0.50;;;21.30;99.90;;;;;;4962353;28;20079;-74
2022/09/12 09:06:06;;;;;;;0.30;0.30;;;21.50;99.90;;;;;;4965046;28;20031;-75
2022/09/12 09:09:01;;;;;;;1.20;1.20;;;21.90;99.90;;;;;;4951144;28;20050;-76
2022/09/12 09:11:29;;;;;;;0.77;0.77;;;22.40;99.90;;;;;;4962269;28;20495;-74
2022/09/12 09:16:51;;;;;;;0.80;0.80;;;22.80;99.90;;;;;;4960259;28;20030;-74
2022/09/12 09:19:36;;;;;;;28.83;1.70;;;23.10;99.90;;;;;;4976103;28;20383;-74
2022/09/12 09:22:03;;;;;;;0.50;0.50;;;23.70;99.90;;;;;;4962873;28;20027;-76
2022/09/12 09:24:54;;;;;;;1.85;1.30;;;24.20;99.90;;;;;;4965647;28;20027;-75
2022/09/12 09:27:51;;;;;;;1.25;1.25;;;24.70;99.90;;;;;;4962174;28;20031;-74
2022/09/12 09:30:18;;;;;;;1.20;1.20;;;25.00;99.90;;;;;;4958569;28;20039;-74
2022/09/12 09:32:49;;;;;;;0.80;0.80;;;25.40;99.90;;;;;;4961255;28;20137;-74
2022/09/12 09:35:37;;;;;;;1.17;1.17;;;26.30;99.50;;;;;;4973762;28;20086;-73
2022/09/12 09:38:40;;;;;;;0.75;0.75;;;26.90;98.70;;;;;;4962266;28;20137;-73
2022/09/12 09:41:15;;;;;;;2.22;2.13;;;26.70;97.40;;;;;;4957956;28;20456;-74
2022/09/12 09:43:41;;;;;;;0.80;0.80;;;27.40;95.90;;;;;;4978097;28;20143;-74
2022/09/12 09:46:10;;;;;;;1.23;1.23;;;27.80;94.70;;;;;;4961784;28;20397;-74
2022/09/12 09:48:40;;;;;;;0.73;0.73;;;27.90;93.60;;;;;;4959216;28;20034;-74
2022/09/12 09:51:08;;;;;;;1.50;1.50;;;28.10;93.30;;;;;;4960664;28;20027;-75
2022/09/12 09:53:54;;;;;;;0.70;0.70;;;28.30;92.40;;;;;;4964459;28;20337;-73
2022/09/12 09:56:43;;;;;;;0.70;0.70;;;28.00;91.00;;;;;;4959904;28;20031;-73
2022/09/12 09:59:15;;;;;;;0.70;0.70;;;27.70;90.80;;;;;;4967552;28;20027;-74
2022/09/12 10:01:56;;;;;;;1.00;1.00;;;27.50;92.10;;;;;;4960260;28;20659;-73
2022/09/12 10:04:28;;;;;;;0.88;0.88;;;27.40;91.60;;;;;;4961447;28;20460;-76
2022/09/12 10:07:00;;;;;;;1.67;1.57;;;27.70;91.30;;;;;;4957712;28;20041;-74
2022/09/12 10:09:26;;;;;;;1.48;1.48;;;27.80;90.00;;;;;;4967697;28;20027;-73
2022/09/12 10:11:53;;;;;;;1.13;1.13;;;27.40;90.40;;;;;;4958118;28;20090;-73
2022/09/12 10:14:37;;;;;;;1.00;1.00;;;27.20;90.10;;;;;;4962860;28;20038;-74
2022/09/12 10:17:26;;;;;;;0.70;0.70;;;27.00;90.60;;;;;;4966566;28;20031;-73
2022/09/12 10:19:52;;;;;;;20.20;13.13;;;27.00;91.20;;;;;;4959509;28;20019;-75
2022/09/12 10:22:21;;;;;;;20.45;12.32;;;27.20;91.60;;;;;;4960618;28;20031;-75
2022/09/12 10:24:52;;;;;;;16.48;12.50;;;27.30;90.20;;;;;;4960246;28;20179;-75
2022/09/12 10:27:24;;;;;;;17.63;12.30;;;27.30;89.80;;;;;;4961142;28;20127;-74
2022/09/12 10:29:54;;;;;;;16.88;12.68;;;27.50;89.80;;;;;;4960130;28;20113;-75
2022/09/12 10:32:30;;;;;;;22.60;12.35;;;27.70;88.20;;;;;;4974177;28;20129;-74
2022/09/12 10:35:00;;;;;;;15.82;11.93;;;28.00;89.00;;;;;;4965222;28;20605;-73
2022/09/12 10:37:35;;;;;;;15.77;11.07;;;28.10;87.70;;;;;;4959949;28;20031;-74
2022/09/12 10:40:04;;;;;;;11.75;10.55;;;28.40;84.00;;;;;;4962877;28;20170;-74
2022/09/12 10:42:51;;;;;;;15.77;13.20;;;28.60;84.80;;;;;;4964166;28;20066;-75
2022/09/12 10:45:25;;;;;;;15.65;12.38;;;28.50;83.40;;;;;;4961525;28;20094;-73
2022/09/12 10:47:52;;;;;;;11.45;9.13;;;28.60;81.60;;;;;;4959847;28;20071;-72
2022/09/12 10:50:42;;;;;;;13.07;9.27;;;28.70;81.40;;;;;;4959565;28;20034;-74
2022/09/12 10:53:21;;;;;;;13.35;11.95;;;28.80;81.50;;;;;;4962280;28;20035;-74
2022/09/12 10:56:13;;;;;;;15.38;12.32;;;28.70;79.60;;;;;;4963083;28;20031;-73
2022/09/12 10:58:52;;;;;;;11.57;9.90;;;28.80;79.20;;;;;;4959644;28;20031;-75
2022/09/12 11:01:47;;;;;;;11.13;8.60;;;29.00;80.50;;;;;;4958794;28;20027;-75
2022/09/12 11:04:28;;;;;;;12.23;9.13;;;29.10;76.80;;;;;;4957395;28;20024;-73
2022/09/12 11:07:12;;;;;;;14.73;9.43;;;29.00;75.80;;;;;;4958020;28;20027;-74
2022/09/12 11:09:47;;;;;;;12.40;8.95;;;29.00;74.80;;;;;;4961342;28;20024;-73
2022/09/12 11:12:54;;;;;;;12.25;9.15;;;29.10;76.10;;;;;;4964245;28;20038;-74
2022/09/12 11:16:01;;;;;;;13.98;9.80;;;29.10;74.90;;;;;;4950911;29;20075;-74
2022/09/12 11:18:48;;;;;;;10.00;8.38;;;28.70;74.40;;;;;;4879373;29;20100;-74
2022/09/12 11:21:45;;;;;;;14.45;9.63;;;28.40;74.00;;;;;;4877205;29;20037;-74
2022/09/12 11:24:37;;;;;;;9.55;8.65;;;28.30;73.40;;;;;;4870800;29;20121;-75
2022/09/12 11:27:37;;;;;;;17.83;9.30;;;28.10;74.90;;;;;;4878432;29;20097;-76
2022/09/12 11:30:09;;;;;;;12.18;8.77;;;28.50;74.80;;;;;;4871392;29;20375;-74
2022/09/12 11:32:53;;;;;;;13.90;8.47;;;28.40;73.80;;;;;;4885871;29;20418;-73
2022/09/12 11:35:39;;;;;;;8.70;7.72;;;28.50;72.30;;;;;;4880862;29;20266;-72
2022/09/12 11:38:13;;;;;;;11.27;8.27;;;28.50;74.10;;;;;;4880227;29;20041;-74
2022/09/12 11:40:55;;;;;;;13.52;7.78;;;28.80;72.40;;;;;;4881259;29;20045;-72
2022/09/12 11:43:51;;;;;;;10.25;7.55;;;28.80;71.70;;;;;;4878761;29;20065;-74
2022/09/12 11:46:28;;;;;;;7.72;6.68;;;29.00;71.10;;;;;;4895901;29;20223;-75
2022/09/12 11:49:08;;;;;;;12.00;8.15;;;28.60;70.20;;;;;;4932209;28;20110;-73
2022/09/12 11:51:44;;;;;;;13.98;8.50;;;28.40;69.90;;;;;;4961945;28;20099;-73
2022/09/12 11:54:18;;;;;;;11.35;8.05;;;28.50;74.20;;;;;;4970553;28;20019;-75
2022/09/12 11:56:52;;;;;;;14.15;8.77;;;28.70;71.80;;;;;;4965879;28;20089;-76
2022/09/12 11:59:30;;;;;;;7.95;6.93;;;28.50;70.40;;;;;;4972733;28;20024;-74
2022/09/12 12:02:00;;;;;;;10.10;7.75;;;29.00;70.10;;;;;;4965502;28;20064;-74
2022/09/12 12:04:38;;;;;;;9.48;6.88;;;28.90;68.60;;;;;;4993224;28;20524;-75
2022/09/12 12:07:09;;;;;;;8.00;7.18;;;29.10;69.40;;;;;;4964201;28;20109;-74
2022/09/12 12:09:49;;;;;;;6.32;5.72;;;29.30;67.60;;;;;;4962828;28;20491;-73
2022/09/12 12:12:22;;;;;;;9.82;6.68;;;29.30;68.70;;;;;;4961327;28;20645;-72
2022/09/12 12:14:50;;;;;;;5.72;5.22;;;29.20;66.10;;;;;;4965072;28;20034;-73
2022/09/12 12:17:22;;;;;;;5.40;4.95;;;29.30;67.10;;;;;;4959612;28;20056;-73
2022/09/12 12:20:00;;;;;;;5.95;5.45;;;29.80;65.30;;;;;;4961512;28;20028;-73
2022/09/12 12:22:26;;;;;;;7.90;5.30;;;29.60;63.90;;;;;;4961337;28;20079;-73
2022/09/12 12:25:12;;;;;;;5.30;4.88;;;29.80;64.20;;;;;;4961782;28;20015;-74
2022/09/12 12:27:45;;;;;;;7.32;6.63;;;29.60;63.60;;;;;;4960225;28;20302;-71
2022/09/12 12:30:52;;;;;;;5.55;5.05;;;29.50;62.10;;;;;;4962991;28;20026;-75
2022/09/12 12:33:21;;;;;;;5.30;4.68;;;29.40;61.90;;;;;;4956354;28;20053;-75
2022/09/12 12:35:59;;;;;;;6.88;4.75;;;29.70;62.70;;;;;;4960191;28;20038;-73
2022/09/12 12:38:31;;;;;;;6.03;5.03;;;29.90;61.30;;;;;;4962076;28;20031;-73
2022/09/12 12:41:17;;;;;;;5.18;4.80;;;29.50;60.70;;;;;;4959198;28;20393;-73
2022/09/12 12:43:51;;;;;;;5.80;4.88;;;29.40;61.70;;;;;;4961393;28;20042;-74
2022/09/12 12:46:25;;;;;;;5.88;4.85;;;29.90;62.70;;;;;;4963865;28;20050;-76
2022/09/12 12:48:57;;;;;;;7.68;5.05;;;30.30;62.00;;;;;;4961259;28;20023;-74
2022/09/12 12:51:41;;;;;;;6.40;5.77;;;30.40;59.00;;;;;;4959999;28;20042;-75
2022/09/12 12:54:38;;;;;;;6.15;5.03;;;30.30;58.70;;;;;;4960184;28;20301;-73
2022/09/12 12:57:31;;;;;;;4.75;4.40;;;30.10;59.50;;;;;;4959815;28;20093;-73
2022/09/12 13:00:00;;;;;;;4.57;4.10;;;30.70;59.50;;;;;;4962522;28;20312;-73
2022/09/12 13:02:34;;;;;;;5.22;4.82;;;30.80;59.70;;;;;;4960150;28;20031;-72
2022/09/12 13:05:05;;;;;;;5.43;4.60;;;30.70;57.20;;;;;;4959634;28;20056;-74
2022/09/12 13:07:38;;;;;;;4.65;4.25;;;30.30;57.80;;;;;;4964662;28;20030;-73
2022/09/12 13:10:10;;;;;;;4.82;4.07;;;30.40;58.60;;;;;;4977176;28;20045;-72
2022/09/12 13:12:44;;;;;;;5.75;5.32;;;30.70;58.50;;;;;;4959505;28;20039;-74
2022/09/12 13:15:34;;;;;;;4.38;4.18;;;30.80;58.10;;;;;;4956443;28;20433;-73
2022/09/12 13:18:14;;;;;;;6.15;4.88;;;30.60;58.30;;;;;;4961818;28;20035;-73
2022/09/12 13:21:08;;;;;;;4.60;4.20;;;30.50;57.70;;;;;;4961574;28;20349;-74
2022/09/12 13:23:35;;;;;;;4.50;4.20;;;30.40;57.30;;;;;;4959809;28;20133;-75